createdAt,value
2022-09-02T00:05:00.644Z,100815.13
2022-09-02T00:10:03.464Z,100810.81
2022-09-02T00:15:08.701Z,100811.09
2022-09-02T00:20:11.661Z,100813.78
2022-09-02T00:25:14.665Z,100805.97
2022-09-02T00:30:19.173Z,100805.19
2022-09-02T00:35:22.049Z,100801.78
2022-09-02T00:40:25.542Z,100795.81
2022-09-02T00:45:29.791Z,100796.06
2022-09-02T00:50:35.478Z,100794.44
2022-09-02T00:55:41.513Z,100798.84
2022-09-02T01:00:46.524Z,100797.38
2022-09-02T01:05:50.813Z,100799.50
2022-09-02T01:10:55.698Z,100786.97
2022-09-02T01:16:03.484Z,100789.94
2022-09-02T01:21:06.488Z,100783.81
2022-09-02T01:26:11.595Z,100776.72
2022-09-02T01:31:14.413Z,100789.47
2022-09-02T01:36:18.145Z,100781.75
2022-09-02T01:41:22.189Z,100775.50
2022-09-02T01:46:25.553Z,100780.03
2022-09-02T01:51:28.398Z,100783.00
2022-09-02T01:56:33.029Z,100782.13
2022-09-02T02:01:37.479Z,100774.28
2022-09-02T02:06:41.218Z,100770.84
2022-09-02T02:11:45.786Z,100767.31
2022-09-02T02:16:51.204Z,100751.41
2022-09-02T02:21:54.182Z,100757.88
2022-09-02T02:26:58.301Z,100757.88
2022-09-02T02:32:01.274Z,100766.09
2022-09-02T02:37:04.241Z,100754.47
2022-09-02T02:42:08.833Z,100759.13
2022-09-02T02:47:11.721Z,100760.25
2022-09-02T02:52:16.257Z,100753.16
2022-09-02T02:57:20.541Z,100743.22
2022-09-02T03:02:23.487Z,100746.16
2022-09-02T03:07:26.418Z,100742.72
2022-09-02T03:12:33.066Z,100740.28
2022-09-02T03:17:36.680Z,100743.84
2022-09-02T03:22:40.142Z,100753.03
2022-09-02T03:27:46.066Z,100751.31
2022-09-02T03:32:50.816Z,100754.50
2022-09-02T03:37:53.936Z,100740.19
2022-09-02T03:43:02.252Z,100742.88
2022-09-02T03:48:06.196Z,100744.72
2022-09-02T03:53:18.137Z,100741.28
2022-09-02T03:58:25.238Z,100735.16
2022-09-02T04:03:29.490Z,100739.69
2022-09-02T04:08:32.483Z,100742.50
2022-09-02T04:13:38.874Z,100746.31
2022-09-02T04:18:41.834Z,100742.88
2022-09-02T04:23:47.253Z,100745.69
2022-09-02T04:28:51.679Z,100732.31
2022-09-02T04:33:54.808Z,100745.91
2022-09-02T04:38:58.239Z,100739.78
2022-09-02T04:44:06.887Z,100740.06
2022-09-02T04:49:13.562Z,100739.28
2022-09-02T04:54:18.809Z,100754.72
2022-09-02T04:59:27.025Z,100748.59
2022-09-02T05:04:37.773Z,100749.72
2022-09-02T05:09:45.328Z,100757.16
2022-09-02T05:14:50.869Z,100750.19
2022-09-02T05:19:55.944Z,100749.81
2022-09-02T05:24:58.781Z,100748.22
2022-09-02T05:30:05.779Z,100758.13
2022-09-02T05:35:10.741Z,100749.09
2022-09-02T05:40:14.962Z,100746.38
2022-09-02T05:45:21.105Z,100750.06
2022-09-02T05:50:23.928Z,100753.59
2022-09-02T05:55:27.133Z,100744.81
2022-09-02T06:00:31.333Z,100749.09
2022-09-02T06:05:38.239Z,100747.25
2022-09-02T06:10:47.767Z,100751.66
2022-09-02T06:15:57.751Z,100749.72
2022-09-02T06:21:04.198Z,100749.59
2022-09-02T06:26:11.615Z,100754.97
2022-09-02T06:31:17.314Z,100757.28
2022-09-02T06:36:21.113Z,100753.75
2022-09-02T06:41:26.702Z,100754.59
2022-09-02T06:46:32.809Z,100748.09
2022-09-02T06:51:39.218Z,100747.88
2022-09-02T06:56:48.589Z,100749.47
2022-09-02T07:01:55.240Z,100751.03
2022-09-02T07:06:59.636Z,100761.81
2022-09-02T07:12:07.124Z,100754.94
2022-09-02T07:17:17.574Z,100749.66
2022-09-02T07:22:24.097Z,100746.63
2022-09-02T07:27:27.742Z,100743.44
2022-09-02T07:32:33.918Z,100753.06
2022-09-02T07:37:37.192Z,100753.59
2022-09-02T07:42:42.359Z,100756.28
2022-09-02T07:47:46.781Z,100752.47
2022-09-02T07:52:51.420Z,100759.09
2022-09-02T07:57:55.437Z,100757.63
2022-09-02T08:03:00.998Z,100757.63
2022-09-02T08:08:09.145Z,100755.06
2022-09-02T08:13:11.945Z,100752.34
2022-09-02T08:18:22.191Z,100749.91
2022-09-02T08:23:36.707Z,100759.09
2022-09-02T08:28:40.105Z,100754.31
2022-09-02T08:33:44.734Z,100761.78
2022-09-02T08:38:47.423Z,100761.28
2022-09-02T08:43:50.730Z,100756.03
2022-09-02T08:48:56.880Z,100743.94
2022-09-02T08:54:02.007Z,100743.81
2022-09-02T08:59:06.273Z,100739.41
2022-09-02T09:04:17.498Z,100735.09
2022-09-02T09:09:23.125Z,100731.81
2022-09-02T09:14:27.750Z,100729.91
2022-09-02T09:19:37.361Z,100715.19
2022-09-02T09:24:41.218Z,100717.63
2022-09-02T09:29:44.744Z,100711.78
2022-09-02T09:35:01.645Z,100713.50
2022-09-02T09:40:27.653Z,100713.63
2022-09-02T09:45:33.291Z,100701.88
2022-09-02T09:50:37.436Z,100702.13
2022-09-02T09:55:51.466Z,100702.84
2022-09-02T10:01:00.659Z,100689.88
2022-09-02T10:06:19.965Z,100692.66
2022-09-02T10:11:24.930Z,100695.59
2022-09-02T10:16:35.450Z,100688.63
2022-09-02T10:22:02.983Z,100685.22
2022-09-02T10:27:08.983Z,100674.91
2022-09-02T10:32:21.351Z,100675.59
2022-09-02T10:37:26.347Z,100675.25
2022-09-02T10:42:32.480Z,100664.41
2022-09-02T10:47:37.289Z,100669.28
2022-09-02T10:52:51.107Z,100661.69
2022-09-02T10:57:55.548Z,100662.91
2022-09-02T11:03:03.371Z,100652.88
2022-09-02T11:08:10.452Z,100655.16
2022-09-02T11:13:15.683Z,100655.16
2022-09-02T11:18:20.195Z,100647.78
2022-09-02T11:23:35.912Z,100647.56
2022-09-02T11:28:40.734Z,100640.19
2022-09-02T11:33:49.382Z,100649.38
2022-09-02T11:38:55.011Z,100631.06
2022-09-02T11:43:59.581Z,100622.91
2022-09-02T11:49:43.832Z,100611.75
2022-09-02T11:54:48.854Z,100613.66
2022-09-02T12:00:10.750Z,100613.69
2022-09-02T12:05:45.181Z,100608.69
2022-09-02T12:11:02.143Z,100612.50
2022-09-02T12:16:36.563Z,100617.78
2022-09-02T12:22:21.739Z,100606.66
2022-09-02T12:27:30.960Z,100604.00
2022-09-02T12:33:05.181Z,100599.88
2022-09-02T12:38:32.777Z,100591.66
2022-09-02T12:43:41.644Z,100583.16
2022-09-02T12:48:48.938Z,100575.06
2022-09-02T12:53:52.001Z,100566.78
2022-09-02T12:59:01.691Z,100566.38
2022-09-02T13:04:16.415Z,100558.78
2022-09-02T13:09:28.154Z,100555.50
2022-09-02T13:15:04.168Z,100561.91
2022-09-02T13:20:42.441Z,100558.94
2022-09-02T13:25:59.026Z,100557.53
2022-09-02T13:31:16.994Z,100549.44
2022-09-02T13:36:24.145Z,100545.31
2022-09-02T13:41:32.844Z,100540.22
2022-09-02T13:46:46.298Z,100534.38
2022-09-02T13:51:51.381Z,100528.13
2022-09-02T13:56:54.276Z,100527.28
2022-09-02T14:01:58.433Z,100527.03
2022-09-02T14:07:01.324Z,100520.34
2022-09-02T14:12:04.400Z,100513.09
2022-09-02T14:17:22.482Z,100504.41
2022-09-02T14:22:27.431Z,100512.94
2022-09-02T14:27:30.219Z,100505.44
2022-09-02T14:32:36.099Z,100503.59
2022-09-02T14:37:49.650Z,100507.16
2022-09-02T14:42:57.491Z,100510.00
2022-09-02T14:48:03.723Z,100496.75
2022-09-02T14:53:11.807Z,100497.91
2022-09-02T14:58:14.682Z,100490.78
2022-09-02T15:03:22.070Z,100499.31
2022-09-02T15:08:25.039Z,100492.78
2022-09-02T15:13:29.525Z,100489.78
2022-09-02T15:18:34.520Z,100490.63
2022-09-02T15:23:41.151Z,100483.94
2022-09-02T15:28:45.297Z,100484.91
2022-09-02T15:33:52.259Z,100483.81
2022-09-02T15:38:55.315Z,100479.94
2022-09-02T15:43:59.674Z,100483.44
2022-09-02T15:49:05.082Z,100463.91
2022-09-02T15:54:08.667Z,100470.88
2022-09-02T15:59:12.416Z,100474.88
2022-09-02T16:04:16.489Z,100474.56
2022-09-02T16:09:19.512Z,100478.44
2022-09-02T16:14:23.407Z,100470.06
2022-09-02T16:19:30.242Z,100476.22
2022-09-02T16:24:33.281Z,100482.91
2022-09-02T16:29:37.189Z,100472.25
2022-09-02T16:34:41.449Z,100472.09
2022-09-02T16:39:44.243Z,100458.56
2022-09-02T16:44:46.960Z,100450.63
2022-09-02T16:49:55.699Z,100448.88
2022-09-02T16:54:58.478Z,100451.47
2022-09-02T17:00:01.331Z,100447.19
2022-09-02T17:05:07.876Z,100445.34
2022-09-02T17:10:11.344Z,100435.81
2022-09-02T17:15:14.510Z,100435.81
2022-09-02T17:20:18.827Z,100437.72
2022-09-02T17:25:21.547Z,100436.25
2022-09-02T17:30:24.365Z,100440.41
2022-09-02T17:35:28.833Z,100438.94
2022-09-02T17:40:49.224Z,100442.09
2022-09-02T17:45:54.900Z,100444.81
2022-09-02T17:50:59.025Z,100441.56
2022-09-02T17:56:04.410Z,100440.84
2022-09-02T18:01:08.920Z,100440.13
2022-09-02T18:06:15.326Z,100446.38
2022-09-02T18:11:18.057Z,100443.69
2022-09-02T18:16:33.300Z,100453.09
2022-09-02T18:21:42.731Z,100454.78
2022-09-02T18:26:52.274Z,100459.06
2022-09-02T18:31:57.604Z,100463.31
2022-09-02T18:37:07.506Z,100454.34
2022-09-02T18:42:18.943Z,100459.63
2022-09-02T18:47:22.693Z,100466.16
2022-09-02T18:52:28.196Z,100459.63
2022-09-02T18:57:33.736Z,100466.16
2022-09-02T19:02:38.481Z,100463.19
2022-09-02T19:08:00.317Z,100466.00
2022-09-02T19:13:03.129Z,100459.91
2022-09-02T19:18:06.154Z,100463.44
2022-09-02T19:23:12.042Z,100469.72
2022-09-02T19:28:15.173Z,100469.84
2022-09-02T19:33:18.124Z,100483.22
2022-09-02T19:38:22.591Z,100470.72
2022-09-02T19:43:25.341Z,100478.81
2022-09-02T19:48:28.063Z,100482.38
2022-09-02T19:53:32.244Z,100485.06
2022-09-02T19:58:35.633Z,100494.03
2022-09-02T20:03:40.249Z,100490.47
2022-09-02T20:08:44.328Z,100495.88
2022-09-02T20:13:49.168Z,100491.63
2022-09-02T20:18:52.994Z,100494.19
2022-09-02T20:23:58.581Z,100500.44
2022-09-02T20:29:09.686Z,100497.88
2022-09-02T20:34:18.465Z,100506.00
2022-09-02T20:39:32.914Z,100502.44
2022-09-02T20:44:43.196Z,100499.19
2022-09-02T20:50:02.640Z,100504.13
2022-09-02T20:55:09.615Z,100506.00
2022-09-02T21:00:13.503Z,100506.00
2022-09-02T21:05:22.425Z,100504.13
2022-09-02T21:10:32.796Z,100506.69
2022-09-02T21:15:39.670Z,100506.84
2022-09-02T21:20:47.162Z,100506.84
2022-09-02T21:25:55.797Z,100514.94
2022-09-02T21:31:03.165Z,100514.25
2022-09-02T21:36:06.364Z,100507.69
2022-09-02T21:41:29.954Z,100499.72
2022-09-02T21:46:35.283Z,100505.13
2022-09-02T21:51:39.426Z,100501.72
2022-09-02T21:56:50.800Z,100500.28
2022-09-02T22:01:55.843Z,100495.31
2022-09-02T22:07:00.970Z,100494.31
2022-09-02T22:12:06.890Z,100490.78
2022-09-02T22:17:14.416Z,100487.06
2022-09-02T22:22:18.902Z,100477.97
2022-09-02T22:27:25.474Z,100487.78
2022-09-02T22:32:31.864Z,100486.53
2022-09-02T22:37:40.295Z,100488.91
2022-09-02T22:42:44.348Z,100485.53
2022-09-02T22:48:06.895Z,100486.06
2022-09-02T22:53:11.096Z,100474.41
2022-09-02T22:58:28.974Z,100471.28
2022-09-02T23:03:37.101Z,100470.84
2022-09-02T23:08:40.282Z,100474.72
2022-09-02T23:13:55.811Z,100472.88
2022-09-02T23:19:06.268Z,100467.31
2022-09-02T23:24:13.342Z,100468.84
2022-09-02T23:29:18.583Z,100458.03
2022-09-02T23:34:30.462Z,100466.13
2022-09-02T23:39:50.037Z,100465.59
2022-09-02T23:44:55.057Z,100467.03
2022-09-02T23:50:02.189Z,100452.25
2022-09-02T23:55:08.977Z,100450.66
